createdAt,value
2023-02-09T00:01:08.105Z,102852.78
2023-02-09T00:03:36.072Z,102852.03
2023-02-09T00:06:06.441Z,102846.47
2023-02-09T00:08:35.366Z,102852.56
2023-02-09T00:11:09.844Z,102861.66
2023-02-09T00:13:38.133Z,102850.16
2023-02-09T00:16:05.488Z,102861.47
2023-02-09T00:18:33.820Z,102867.56
2023-02-09T00:21:08.417Z,102868.53
2023-02-09T00:23:40.851Z,102860.75
2023-02-09T00:26:11.619Z,102863.91
2023-02-09T00:28:38.968Z,102864.47
2023-02-09T00:31:11.927Z,102867.03
2023-02-09T00:33:39.161Z,102872.03
2023-02-09T00:36:09.050Z,102873.13
2023-02-09T00:38:37.027Z,102872.59
2023-02-09T00:41:05.251Z,102854.63
2023-02-09T00:43:33.489Z,102863.53
2023-02-09T00:46:00.602Z,102854.25
2023-02-09T00:48:27.840Z,102850.72
2023-02-09T00:50:55.151Z,102831.66
2023-02-09T00:53:23.580Z,102835.53
2023-02-09T00:55:51.185Z,102832.56
2023-02-09T00:58:19.315Z,102832.72
2023-02-09T01:00:46.646Z,102818.69
2023-02-09T01:03:13.822Z,102814.97
2023-02-09T01:05:42.922Z,102812.75
2023-02-09T01:08:10.158Z,102819.25
2023-02-09T01:10:38.663Z,102814.25
2023-02-09T01:13:05.903Z,102812.38
2023-02-09T01:15:33.070Z,102811.09
2023-02-09T01:18:00.375Z,102815.34
2023-02-09T01:20:28.185Z,102812.38
2023-02-09T01:22:55.284Z,102800.34
2023-02-09T01:25:22.312Z,102802.00
2023-02-09T01:27:49.346Z,102792.38
2023-02-09T01:30:17.333Z,102788.84
2023-02-09T01:32:44.588Z,102782.38
2023-02-09T01:35:11.745Z,102780.91
2023-02-09T01:37:38.921Z,102780.91
2023-02-09T01:40:07.273Z,102782.38
2023-02-09T01:42:34.527Z,102781.06
2023-02-09T01:45:59.702Z,102766.47
2023-02-09T01:48:30.717Z,102758.88
2023-02-09T01:51:01.191Z,102761.81
2023-02-09T01:53:28.588Z,102755.56
2023-02-09T01:56:04.412Z,102746.84
2023-02-09T01:58:32.314Z,102744.03
2023-02-09T02:01:00.257Z,102740.91
2023-02-09T02:03:29.416Z,102741.09
2023-02-09T02:06:06.572Z,102733.53
2023-02-09T02:09:00.658Z,102717.97
2023-02-09T02:11:29.780Z,102701.13
2023-02-09T02:13:57.884Z,102707.09
2023-02-09T02:17:11.368Z,102704.66
2023-02-09T02:20:33.009Z,102697.81
2023-02-09T02:24:09.329Z,102690.41
2023-02-09T02:26:56.107Z,102686.72
2023-02-09T02:30:21.475Z,102689.69
2023-02-09T02:33:29.729Z,102672.84
2023-02-09T02:36:23.411Z,102678.22
2023-02-09T02:39:06.858Z,102673.75
2023-02-09T02:42:17.979Z,102677.47
2023-02-09T02:45:01.349Z,102669.50
2023-02-09T02:47:31.311Z,102669.13
2023-02-09T02:50:13.569Z,102667.09
2023-02-09T02:52:46.200Z,102662.09
2023-02-09T02:55:18.259Z,102669.88
2023-02-09T02:57:50.940Z,102666.19
2023-02-09T03:00:26.041Z,102640.84
2023-02-09T03:02:59.298Z,102649.38
2023-02-09T03:05:28.019Z,102641.22
2023-02-09T03:07:55.020Z,102626.25
2023-02-09T03:10:35.017Z,102630.66
2023-02-09T03:13:25.866Z,102624.19
2023-02-09T03:16:26.472Z,102616.06
2023-02-09T03:19:07.805Z,102611.97
2023-02-09T03:21:51.948Z,102613.47
2023-02-09T03:24:45.181Z,102615.66
2023-02-09T03:27:45.162Z,102619.38
2023-02-09T03:30:16.244Z,102621.59
2023-02-09T03:32:47.082Z,102617.53
2023-02-09T03:35:20.560Z,102624.91
2023-02-09T03:37:47.557Z,102624.19
2023-02-09T03:40:14.546Z,102624.75
2023-02-09T03:42:41.753Z,102625.09
2023-02-09T03:45:09.834Z,102625.66
2023-02-09T03:47:36.841Z,102633.28
2023-02-09T03:50:06.811Z,102623.28
2023-02-09T03:52:34.485Z,102639.53
2023-02-09T03:55:03.247Z,102625.69
2023-02-09T03:57:30.331Z,102628.44
2023-02-09T03:59:57.394Z,102626.78
2023-02-09T04:02:24.959Z,102623.44
2023-02-09T04:04:53.611Z,102627.16
2023-02-09T04:07:20.765Z,102611.06
2023-02-09T04:09:47.834Z,102619.00
2023-02-09T04:12:14.850Z,102614.22
2023-02-09T04:14:41.875Z,102628.28
2023-02-09T04:17:08.873Z,102620.28
2023-02-09T04:19:35.905Z,102628.44
2023-02-09T04:22:02.975Z,102622.72
2023-02-09T04:24:30.150Z,102616.44
2023-02-09T04:26:57.174Z,102619.38
2023-02-09T04:29:24.212Z,102619.75
2023-02-09T04:31:51.559Z,102622.31
2023-02-09T04:34:21.109Z,102619.94
2023-02-09T04:36:48.218Z,102613.66
2023-02-09T04:39:15.303Z,102610.16
2023-02-09T04:41:42.404Z,102607.75
2023-02-09T04:44:09.545Z,102606.78
2023-02-09T04:46:36.536Z,102600.88
2023-02-09T04:49:03.565Z,102610.13
2023-02-09T04:51:30.575Z,102600.88
2023-02-09T04:53:57.581Z,102603.66
2023-02-09T04:56:24.602Z,102595.72
2023-02-09T04:59:10.169Z,102595.72
2023-02-09T05:01:37.211Z,102606.06
2023-02-09T05:04:04.528Z,102597.38
2023-02-09T05:06:31.523Z,102602.94
2023-02-09T05:08:58.525Z,102601.47
2023-02-09T05:11:26.903Z,102589.97
2023-02-09T05:13:53.943Z,102590.72
2023-02-09T05:16:21.022Z,102594.22
2023-02-09T05:18:50.316Z,102592.38
2023-02-09T05:21:17.324Z,102592.03
2023-02-09T05:23:44.379Z,102583.31
2023-02-09T05:26:11.436Z,102596.63
2023-02-09T05:28:38.438Z,102600.13
2023-02-09T05:31:05.753Z,102596.59
2023-02-09T05:33:32.795Z,102594.63
2023-02-09T05:35:59.913Z,102581.84
2023-02-09T05:38:26.963Z,102590.34
2023-02-09T05:40:53.977Z,102596.44
2023-02-09T05:43:21.020Z,102589.06
2023-02-09T05:45:48.073Z,102586.06
2023-02-09T05:48:15.168Z,102582.53
2023-02-09T05:50:42.216Z,102587.19
2023-02-09T05:53:09.899Z,102585.69
2023-02-09T05:55:37.384Z,102580.34
2023-02-09T05:58:04.671Z,102571.47
2023-02-09T06:00:31.897Z,102578.31
2023-02-09T06:02:59.042Z,102571.09
2023-02-09T06:05:26.645Z,102564.81
2023-02-09T06:07:54.256Z,102565.88
2023-02-09T06:10:21.865Z,102566.44
2023-02-09T06:12:49.017Z,102565.88
2023-02-09T06:15:16.474Z,102573.28
2023-02-09T06:17:44.048Z,102563.84
2023-02-09T06:20:11.885Z,102573.09
2023-02-09T06:22:38.992Z,102571.78
2023-02-09T06:25:06.556Z,102571.44
2023-02-09T06:27:33.680Z,102559.25
2023-02-09T06:30:00.769Z,102567.75
2023-02-09T06:32:27.812Z,102564.81
2023-02-09T06:34:54.919Z,102564.97
2023-02-09T06:37:21.990Z,102565.88
2023-02-09T06:39:49.050Z,102572.41
2023-02-09T06:42:16.047Z,102564.66
2023-02-09T06:44:43.092Z,102572.03
2023-02-09T06:47:10.185Z,102569.25
2023-02-09T06:49:37.209Z,102569.81
2023-02-09T06:52:04.545Z,102565.38
2023-02-09T06:54:31.665Z,102569.47
2023-02-09T06:56:58.681Z,102559.50
2023-02-09T06:59:25.765Z,102559.31
2023-02-09T07:01:55.003Z,102558.91
2023-02-09T07:04:22.548Z,102564.63
2023-02-09T07:06:49.559Z,102568.69
2023-02-09T07:09:16.622Z,102569.25
2023-02-09T07:11:43.924Z,102563.66
2023-02-09T07:14:10.944Z,102540.56
2023-02-09T07:16:38.060Z,102549.69
2023-02-09T07:19:05.124Z,102544.97
2023-02-09T07:21:32.166Z,102548.03
2023-02-09T07:23:59.338Z,102548.63
2023-02-09T07:26:26.539Z,102542.88
2023-02-09T07:28:53.619Z,102536.28
2023-02-09T07:31:20.741Z,102520.66
2023-02-09T07:33:48.078Z,102537.81
2023-02-09T07:36:16.878Z,102540.97
2023-02-09T07:38:44.616Z,102538.59
2023-02-09T07:41:19.267Z,102542.94
2023-02-09T07:43:47.075Z,102538.84
2023-02-09T07:46:21.065Z,102523.56
2023-02-09T07:48:49.145Z,102533.09
2023-02-09T07:51:32.880Z,102520.50
2023-02-09T07:54:01.336Z,102521.28
2023-02-09T07:56:29.024Z,102522.66
2023-02-09T07:58:57.294Z,102522.47
2023-02-09T08:01:25.106Z,102524.53
2023-02-09T08:03:52.600Z,102516.78
2023-02-09T08:06:42.470Z,102509.56
2023-02-09T08:09:12.342Z,102521.88
2023-02-09T08:12:02.626Z,102521.28
2023-02-09T08:14:44.391Z,102511.13
2023-02-09T08:17:23.189Z,102507.19
2023-02-09T08:20:12.277Z,102502.75
2023-02-09T08:22:46.147Z,102503.84
2023-02-09T08:25:16.634Z,102487.88
2023-02-09T08:27:45.467Z,102493.25
2023-02-09T08:30:15.479Z,102490.03
2023-02-09T08:32:42.719Z,102493.84
2023-02-09T08:35:10.648Z,102487.59
2023-02-09T08:37:37.889Z,102484.84
2023-02-09T08:40:05.457Z,102487.34
2023-02-09T08:42:32.446Z,102482.81
2023-02-09T08:44:59.439Z,102484.53
2023-02-09T08:47:26.548Z,102482.44
2023-02-09T08:49:53.563Z,102486.34
2023-02-09T08:52:20.594Z,102480.09
2023-02-09T08:54:47.698Z,102481.47
2023-02-09T08:57:14.750Z,102473.00
2023-02-09T08:59:41.826Z,102471.00
2023-02-09T09:02:08.837Z,102464.88
2023-02-09T09:04:36.240Z,102467.63
2023-02-09T09:07:03.334Z,102469.06
2023-02-09T09:09:30.326Z,102463.91
2023-02-09T09:11:57.359Z,102456.59
2023-02-09T09:14:26.560Z,102459.75
2023-02-09T09:16:53.684Z,102456.00
2023-02-09T09:19:20.729Z,102452.31
2023-02-09T09:21:47.789Z,102447.88
2023-02-09T09:24:16.193Z,102460.25
2023-02-09T09:26:43.297Z,102459.66
2023-02-09T09:29:10.755Z,102464.72
2023-02-09T09:31:38.048Z,102457.81
2023-02-09T09:34:05.910Z,102460.25
2023-02-09T09:36:32.900Z,102451.31
2023-02-09T09:38:59.944Z,102453.47
2023-02-09T09:41:38.959Z,102446.81
2023-02-09T09:44:29.615Z,102440.91
2023-02-09T09:47:01.296Z,102441.38
2023-02-09T09:49:31.808Z,102436.56
2023-02-09T09:52:30.175Z,102432.09
2023-02-09T09:55:00.466Z,102439.69
2023-02-09T09:57:32.204Z,102437.19
2023-02-09T10:00:03.347Z,102430.38
2023-02-09T10:02:34.277Z,102427.91
2023-02-09T10:05:26.837Z,102424.38
2023-02-09T10:08:15.942Z,102417.31
2023-02-09T10:11:04.237Z,102407.13
2023-02-09T10:13:47.992Z,102405.41
2023-02-09T10:16:25.514Z,102397.94
2023-02-09T10:18:58.428Z,102399.63
2023-02-09T10:21:29.669Z,102388.19
2023-02-09T10:24:11.758Z,102388.13
2023-02-09T10:26:40.632Z,102378.28
2023-02-09T10:29:24.820Z,102372.34
2023-02-09T10:32:28.997Z,102361.75
2023-02-09T10:34:57.934Z,102359.13
2023-02-09T10:37:34.318Z,102358.38
2023-02-09T10:40:25.586Z,102343.41
2023-02-09T10:43:02.232Z,102356.72
2023-02-09T10:45:40.747Z,102349.50
2023-02-09T10:48:13.626Z,102341.63
2023-02-09T10:50:55.163Z,102336.44
2023-02-09T10:53:39.582Z,102326.41
2023-02-09T10:56:33.632Z,102316.72
2023-02-09T10:59:22.667Z,102314.09
2023-02-09T11:02:02.225Z,102304.41
2023-02-09T11:04:41.153Z,102303.16
2023-02-09T11:07:16.718Z,102290.19
2023-02-09T11:09:49.212Z,102293.91
2023-02-09T11:12:16.228Z,102289.50
2023-02-09T11:14:43.815Z,102289.59
2023-02-09T11:17:36.519Z,102275.34
2023-02-09T11:20:36.288Z,102280.16
2023-02-09T11:23:30.644Z,102276.94
2023-02-09T11:26:22.716Z,102265.97
2023-02-09T11:29:09.653Z,102265.31
2023-02-09T11:31:48.473Z,102268.00
2023-02-09T11:35:22.657Z,102262.78
2023-02-09T11:37:55.249Z,102256.81
2023-02-09T11:40:41.473Z,102251.66
2023-02-09T11:43:11.185Z,102255.44
2023-02-09T11:46:03.724Z,102245.09
2023-02-09T11:48:56.787Z,102235.81
2023-02-09T11:51:26.767Z,102235.59
2023-02-09T11:54:22.883Z,102236.22
2023-02-09T11:56:59.962Z,102234.41
2023-02-09T11:59:39.324Z,102237.41
2023-02-09T12:02:40.808Z,102234.38
2023-02-09T12:05:12.442Z,102230.81
2023-02-09T12:08:30.784Z,102229.72
2023-02-09T12:11:24.618Z,102224.53
2023-02-09T12:14:21.074Z,102219.91
2023-02-09T12:16:58.242Z,102224.25
2023-02-09T12:19:39.955Z,102214.25
2023-02-09T12:22:35.139Z,102211.25
2023-02-09T12:25:20.264Z,102209.84
2023-02-09T12:28:17.053Z,102202.94
2023-02-09T12:30:44.411Z,102196.97
2023-02-09T12:33:27.420Z,102192.88
2023-02-09T12:36:01.732Z,102195.25
2023-02-09T12:38:55.984Z,102184.25
2023-02-09T12:41:50.996Z,102184.84
2023-02-09T12:44:18.530Z,102191.38
2023-02-09T12:46:45.600Z,102183.19
2023-02-09T12:49:12.543Z,102180.44
2023-02-09T12:51:55.047Z,102174.13
2023-02-09T12:54:38.411Z,102165.22
2023-02-09T12:57:17.876Z,102174.47
2023-02-09T12:59:50.989Z,102170.25
2023-02-09T13:02:56.274Z,102167.88
2023-02-09T13:05:33.095Z,102171.75
2023-02-09T13:08:15.974Z,102175.50
2023-02-09T13:11:03.127Z,102168.53
2023-02-09T13:13:33.817Z,102167.88
2023-02-09T13:16:00.760Z,102163.91
2023-02-09T13:19:00.598Z,102146.19
2023-02-09T13:21:57.805Z,102146.84
2023-02-09T13:24:47.235Z,102144.63
2023-02-09T13:27:24.450Z,102135.59
2023-02-09T13:29:56.623Z,102135.38
2023-02-09T13:33:08.590Z,102127.94
2023-02-09T13:36:16.203Z,102120.22
2023-02-09T13:38:50.203Z,102119.25
2023-02-09T13:41:40.645Z,102110.03
2023-02-09T13:44:25.882Z,102116.78
2023-02-09T13:47:01.447Z,102115.09
2023-02-09T13:49:30.055Z,102113.81
2023-02-09T13:52:20.375Z,102111.94
2023-02-09T13:54:47.606Z,102118.38
2023-02-09T13:57:35.364Z,102122.88
2023-02-09T14:00:29.472Z,102122.13
2023-02-09T14:03:12.058Z,102110.22
2023-02-09T14:06:02.482Z,102112.66
2023-02-09T14:08:31.751Z,102112.06
2023-02-09T14:11:12.248Z,102099.84
2023-02-09T14:13:53.391Z,102096.53
2023-02-09T14:16:23.924Z,102089.72
2023-02-09T14:18:59.819Z,102095.88
2023-02-09T14:21:42.858Z,102081.03
2023-02-09T14:24:16.346Z,102079.44
2023-02-09T14:26:52.179Z,102078.53
2023-02-09T14:29:27.790Z,102072.00
2023-02-09T14:32:01.963Z,102066.34
2023-02-09T14:34:39.240Z,102065.75
2023-02-09T14:37:11.972Z,102069.41
2023-02-09T14:40:16.094Z,102058.06
2023-02-09T14:43:07.097Z,102070.84
2023-02-09T14:45:49.030Z,102059.91
2023-02-09T14:48:23.308Z,102058.88
2023-02-09T14:50:55.138Z,102053.72
2023-02-09T14:53:24.617Z,102052.56
2023-02-09T14:55:54.102Z,102058.59
2023-02-09T14:58:26.871Z,102060.53
2023-02-09T15:00:57.313Z,102059.03
2023-02-09T15:03:24.843Z,102055.25
2023-02-09T15:06:01.711Z,102050.06
2023-02-09T15:08:35.171Z,102056.22
2023-02-09T15:11:26.346Z,102049.69
2023-02-09T15:13:59.772Z,102050.81
2023-02-09T15:16:26.920Z,102055.16
2023-02-09T15:18:54.013Z,102060.34
2023-02-09T15:21:21.023Z,102046.88
2023-02-09T15:23:48.870Z,102052.53
2023-02-09T15:26:18.129Z,102049.19
2023-02-09T15:28:45.133Z,102051.72
2023-02-09T15:31:16.277Z,102043.72
2023-02-09T15:33:43.915Z,102050.19
2023-02-09T15:36:18.166Z,102048.44
2023-02-09T15:38:45.399Z,102045.28
2023-02-09T15:41:31.170Z,102041.09
2023-02-09T15:44:23.382Z,102042.16
2023-02-09T15:47:08.885Z,102033.31
2023-02-09T15:49:35.902Z,102037.09
2023-02-09T15:52:03.011Z,102026.78
2023-02-09T15:54:33.056Z,102030.59
2023-02-09T15:57:01.348Z,102024.44
2023-02-09T15:59:28.431Z,102024.34
2023-02-09T16:01:57.671Z,102024.47
2023-02-09T16:04:25.980Z,102025.00
2023-02-09T16:06:54.578Z,102025.41
2023-02-09T16:09:29.242Z,102030.50
2023-02-09T16:11:56.727Z,102033.53
2023-02-09T16:14:26.670Z,102024.50
2023-02-09T16:16:53.751Z,102012.47
2023-02-09T16:19:21.541Z,102016.50
2023-02-09T16:21:56.327Z,102021.22
2023-02-09T16:24:32.947Z,102020.84
2023-02-09T16:27:02.432Z,102012.47
2023-02-09T16:29:29.756Z,102024.63
2023-02-09T16:31:56.890Z,102016.78
2023-02-09T16:34:23.964Z,102013.91
2023-02-09T16:36:51.165Z,102007.50
2023-02-09T16:39:21.175Z,102005.28
2023-02-09T16:41:50.475Z,102008.16
2023-02-09T16:44:30.441Z,102009.88
2023-02-09T16:46:59.920Z,102008.94
2023-02-09T16:49:40.322Z,102009.31
2023-02-09T16:52:25.889Z,102005.81
2023-02-09T16:55:04.267Z,102000.44
2023-02-09T16:57:31.262Z,101993.91
2023-02-09T16:59:58.311Z,101980.03
2023-02-09T17:02:42.540Z,102010.38
2023-02-09T17:05:37.196Z,101995.34
2023-02-09T17:08:24.216Z,101990.50
2023-02-09T17:10:54.464Z,101987.75
2023-02-09T17:13:22.146Z,101982.03
2023-02-09T17:16:02.929Z,101982.03
2023-02-09T17:18:42.403Z,101976.13
2023-02-09T17:21:23.953Z,101976.25
2023-02-09T17:23:52.089Z,101976.63
2023-02-09T17:26:19.795Z,101960.44
2023-02-09T17:28:47.538Z,101961.09
2023-02-09T17:31:27.117Z,101964.22
2023-02-09T17:34:00.911Z,101961.38
2023-02-09T17:36:30.109Z,101962.66
2023-02-09T17:38:59.539Z,101962.75
2023-02-09T17:41:43.170Z,101961.59
2023-02-09T17:44:35.344Z,101956.25
2023-02-09T17:47:03.511Z,101951.50
2023-02-09T17:49:30.599Z,101944.47
2023-02-09T17:51:57.654Z,101937.09
2023-02-09T17:54:24.760Z,101927.84
2023-02-09T17:56:51.763Z,101922.88
2023-02-09T17:59:20.370Z,101930.59
2023-02-09T18:01:55.107Z,101936.09
2023-02-09T18:04:27.129Z,101930.19
2023-02-09T18:06:56.678Z,101918.19
2023-02-09T18:09:24.740Z,101915.69
2023-02-09T18:11:52.164Z,101923.53
2023-02-09T18:14:21.348Z,101911.63
2023-02-09T18:16:49.035Z,101904.31
2023-02-09T18:19:16.989Z,101903.09
2023-02-09T18:22:01.765Z,101895.00
2023-02-09T18:24:32.971Z,101897.84
2023-02-09T18:27:00.343Z,101896.78
2023-02-09T18:29:29.639Z,101892.34
2023-02-09T18:31:59.258Z,101892.97
2023-02-09T18:34:26.673Z,101895.84
2023-02-09T18:36:53.759Z,101902.63
2023-02-09T18:39:20.984Z,101891.78
2023-02-09T18:41:54.150Z,101899.31
2023-02-09T18:44:29.160Z,101890.97
2023-02-09T18:47:00.594Z,101888.22
2023-02-09T18:49:28.495Z,101887.28
2023-02-09T18:51:57.038Z,101887.03
2023-02-09T18:54:24.026Z,101886.63
2023-02-09T18:56:52.829Z,101872.53
2023-02-09T18:59:20.074Z,101875.13
2023-02-09T19:01:47.148Z,101870.63
2023-02-09T19:04:14.302Z,101876.13
2023-02-09T19:06:41.298Z,101870.63
2023-02-09T19:09:08.303Z,101865.00
2023-02-09T19:11:35.392Z,101864.75
2023-02-09T19:14:40.848Z,101867.78
2023-02-09T19:17:13.275Z,101863.34
2023-02-09T19:19:40.934Z,101850.78
2023-02-09T19:22:09.329Z,101854.09
2023-02-09T19:24:36.706Z,101855.22
2023-02-09T19:27:06.784Z,101853.53
2023-02-09T19:29:34.945Z,101849.72
2023-02-09T19:44:56.573Z,101855.38
2023-02-09T19:47:27.565Z,101857.72
2023-02-09T19:49:58.667Z,101840.81
2023-02-09T19:52:28.002Z,101853.66
2023-02-09T19:54:57.586Z,101850.88
2023-02-09T19:57:24.883Z,101849.06
2023-02-09T19:59:53.875Z,101839.28
2023-02-09T20:02:20.905Z,101830.03
2023-02-09T20:04:47.958Z,101825.22
2023-02-09T20:07:15.259Z,101820.59
2023-02-09T20:09:42.665Z,101830.69
2023-02-09T20:12:09.707Z,101828.06
2023-02-09T20:14:36.840Z,101827.22
2023-02-09T20:17:03.836Z,101832.44
2023-02-09T20:19:31.177Z,101821.13
2023-02-09T20:21:58.173Z,101835.69
2023-02-09T20:24:25.244Z,101824.75
2023-02-09T20:26:52.265Z,101829.72
2023-02-09T20:29:19.549Z,101823.97
2023-02-09T20:31:46.816Z,101831.88
2023-02-09T20:34:15.405Z,101817.09
2023-02-09T20:36:45.623Z,101817.56
2023-02-09T20:39:16.228Z,101826.09
2023-02-09T20:42:05.738Z,101815.41
2023-02-09T20:44:52.982Z,101821.78
2023-02-09T20:47:20.137Z,101819.19
2023-02-09T20:49:47.267Z,101818.41
2023-02-09T20:52:14.404Z,101824.75
2023-02-09T20:54:41.515Z,101828.84
2023-02-09T20:57:08.965Z,101830.03
2023-02-09T20:59:36.057Z,101848.28
2023-02-09T21:02:03.192Z,101846.72
2023-02-09T21:04:30.354Z,101835.66
2023-02-09T21:06:58.820Z,101826.88
2023-02-09T21:09:29.328Z,101831.22
2023-02-09T21:11:57.173Z,101821.66
2023-02-09T21:14:41.094Z,101818.41
2023-02-09T21:17:09.595Z,101818.06
2023-02-09T21:19:37.016Z,101815.81
2023-02-09T21:22:04.172Z,101803.19
2023-02-09T21:24:31.158Z,101810.16
2023-02-09T21:27:00.744Z,101800.59
2023-02-09T21:29:29.286Z,101790.09
2023-02-09T21:32:00.100Z,101791.09
2023-02-09T21:34:27.282Z,101786.88
2023-02-09T21:36:54.351Z,101788.44
2023-02-09T21:39:21.549Z,101788.91
2023-02-09T21:42:07.230Z,101792.59
2023-02-09T21:44:37.347Z,101799.50
2023-02-09T21:47:04.778Z,101780.19
2023-02-09T21:49:32.444Z,101789.56
2023-02-09T21:51:59.613Z,101776.22
2023-02-09T21:54:32.853Z,101786.66
2023-02-09T21:57:03.791Z,101790.56
2023-02-09T21:59:30.829Z,101783.56
2023-02-09T22:01:57.924Z,101785.47
2023-02-09T22:04:25.850Z,101786.88
2023-02-09T22:06:53.123Z,101795.63
2023-02-09T22:09:20.616Z,101806.50
2023-02-09T22:11:47.723Z,101799.28
2023-02-09T22:14:14.782Z,101794.13
2023-02-09T22:16:42.595Z,101794.44
2023-02-09T22:19:09.720Z,101792.88
2023-02-09T22:21:36.741Z,101801.31
2023-02-09T22:24:04.045Z,101793.38
2023-02-09T22:26:31.110Z,101793.28
2023-02-09T22:28:58.255Z,101786.63
2023-02-09T22:31:25.287Z,101791.19
2023-02-09T22:33:58.465Z,101783.72
2023-02-09T22:36:25.521Z,101784.09
2023-02-09T22:38:52.574Z,101779.44
2023-02-09T22:41:23.075Z,101767.19
2023-02-09T22:43:56.081Z,101776.84
2023-02-09T22:46:32.770Z,101770.91
2023-02-09T22:49:05.720Z,101767.63
2023-02-09T22:51:34.364Z,101771.50
2023-02-09T22:54:05.236Z,101770.34
2023-02-09T22:56:33.077Z,101777.38
2023-02-09T22:59:01.815Z,101773.47
2023-02-09T23:01:29.590Z,101769.03
2023-02-09T23:03:57.255Z,101760.66
2023-02-09T23:06:27.431Z,101762.63
2023-02-09T23:09:07.562Z,101764.47
2023-02-09T23:11:35.748Z,101765.88
2023-02-09T23:14:09.669Z,101772.97
2023-02-09T23:16:38.579Z,101764.16
2023-02-09T23:19:08.628Z,101762.06
2023-02-09T23:21:39.452Z,101764.59
2023-02-09T23:24:07.259Z,101755.72
2023-02-09T23:26:34.699Z,101749.66
2023-02-09T23:29:06.045Z,101752.06
2023-02-09T23:31:33.633Z,101740.31
2023-02-09T23:34:00.705Z,101739.06
2023-02-09T23:36:31.108Z,101730.94
2023-02-09T23:39:01.839Z,101740.31
2023-02-09T23:41:29.705Z,101730.94
2023-02-09T23:43:57.835Z,101735.59
2023-02-09T23:46:28.730Z,101736.94
2023-02-09T23:48:56.657Z,101739.25
2023-02-09T23:51:35.586Z,101726.53
2023-02-09T23:54:05.680Z,101728.28
2023-02-09T23:56:37.191Z,101718.22
2023-02-09T23:59:08.128Z,101719.91
